Terminal Aerodrome Forecast
Issued by NWS Charleston, WV

Current Version | Previous Version | Text Only | Print | Product List | Glossary Off
Versions: 1 2 3 4 5 6 7 8 9 10 11 12 13 14 15 16 17 18 19 20 21 22 23 24

000
FTUS41 KRLX 180100 AAA
TAFPKB
TAF AMD
KPKB 180153Z 1802/1824 VRB03KT P6SM BKN050
     FM180400 VRB03KT 4SM BR BKN040
     FM180900 VRB03KT 2SM BR SCT001 BKN035
     FM181300 15005KT 5SM -SHRA BR OVC030
     FM181900 VRB03KT 6SM HZ VCTS BKN030CB=

USA.gov is the U.S. government's official web portal to all federal, state and local government web resources and services.